Colorado Springs, CO (80924)

1:25 PM MDT on July 24, 2016 (GMT -0600)
Briargate | | Change Station

Elev 6952 ft 38.96 °N, 104.76 °W | Updated 14 minutes ago

Scattered Clouds
Scattered Clouds
85.5 °F
Feels Like 84 °F
N
3.8
Wind Variable Wind from SSW

Today
High -- | Low -- °F
--% Chance of Precip.
Yesterday
High -- | Low -- °F
Precip. -- in
Pressure 30.23 in
Visibility 10.0 miles
Clouds Few 15000 ft
Scattered Clouds 18000 ft
Scattered Clouds 22000 ft
Heat Index 84 °F
Dew Point 52 °F
Humidity 32%
Rainfall 0.00 in
Snow Depth Not available.
5:53 AM 8:17 PM
Waning Gibbous, 74% visible
SPECI KAFF 241919Z AUTO 16012KT 10SM FEW150 SCT180 SCT220 30/08 A3023 RMK AO2 WSHFT 14 LTG DSNT SE
Pressure 30.23 in
Visibility 10.0 miles
Clouds Few 15000 ft
Scattered Clouds 18000 ft
Scattered Clouds 22000 ft
Heat Index 84 °F
Dew Point 52 °F
Humidity 32%
Rainfall 0.00 in
Snow Depth Not available.
5:53 AM 8:17 PM
Waning Gibbous, 74% visible
SPECI KAFF 241919Z AUTO 16012KT 10SM FEW150 SCT180 SCT220 30/08 A3023 RMK AO2 WSHFT 14 LTG DSNT SE

10-Day Weather Forecast

Almanac

Astronomy

Jul. 24, 2016 Rise Set
Actual Time
Civil Twilight
Nautical Twilight
Astronomical Twilight
Moon
Length of Visible Light
Length of Day
Tomorrow will be .
, % of the Moon is Illuminated

Today's Extremes

State Highs State Lows

Community

WunderPhotos

Upload Photos

1,927,172 photos uploaded!

WunderBlog® & News

Nearby

Air Quality

  Air Quality AQ Index Pollutant
Not available.

Snow Depth

Station Depth Elevation

Earthquake Activity

City Distance Mag. Time & Date
Minimum magnitude displayed is 2.5.

Coastal Water Temperatures

Place Temperature

Stations

Nearby Weather Stations

Station Location Temp. Windchill Dew Point Humidity Wind Precip. Elev Updated Type
                   

Watches & Warnings

There are currently no watches in effect.